sensor_id;sensor_type;location;lat;lon;timestamp;temperature;humidity
45491;DHT22;31237;45.586;13.782;2023-08-01T00:01:29;22.00;84.00
45491;DHT22;31237;45.586;13.782;2023-08-01T00:03:55;22.00;83.90
45491;DHT22;31237;45.586;13.782;2023-08-01T00:06:21;22.00;83.80
45491;DHT22;31237;45.586;13.782;2023-08-01T00:08:48;22.00;83.80
45491;DHT22;31237;45.586;13.782;2023-08-01T00:11:13;22.00;83.70
45491;DHT22;31237;45.586;13.782;2023-08-01T00:13:40;22.00;83.60
45491;DHT22;31237;45.586;13.782;2023-08-01T00:16:06;22.00;83.50
45491;DHT22;31237;45.586;13.782;2023-08-01T00:18:32;22.00;83.40
45491;DHT22;31237;45.586;13.782;2023-08-01T00:20:58;22.00;83.40
45491;DHT22;31237;45.586;13.782;2023-08-01T00:23:24;22.00;83.30
45491;DHT22;31237;45.586;13.782;2023-08-01T00:25:50;22.00;83.20
45491;DHT22;31237;45.586;13.782;2023-08-01T00:28:18;22.00;83.10
45491;DHT22;31237;45.586;13.782;2023-08-01T00:30:44;22.00;83.10
45491;DHT22;31237;45.586;13.782;2023-08-01T00:33:10;22.00;83.00
45491;DHT22;31237;45.586;13.782;2023-08-01T00:35:35;22.00;82.90
45491;DHT22;31237;45.586;13.782;2023-08-01T00:38:06;22.00;82.80
45491;DHT22;31237;45.586;13.782;2023-08-01T00:40:48;22.00;82.70
45491;DHT22;31237;45.586;13.782;2023-08-01T00:43:15;22.00;82.70
45491;DHT22;31237;45.586;13.782;2023-08-01T00:45:41;22.00;82.70
45491;DHT22;31237;45.586;13.782;2023-08-01T00:48:07;22.00;82.70
45491;DHT22;31237;45.586;13.782;2023-08-01T00:50:33;22.00;82.70
45491;DHT22;31237;45.586;13.782;2023-08-01T00:52:59;22.00;82.60
45491;DHT22;31237;45.586;13.782;2023-08-01T00:55:27;22.00;82.70
45491;DHT22;31237;45.586;13.782;2023-08-01T00:57:54;22.00;82.80
45491;DHT22;31237;45.586;13.782;2023-08-01T01:00:20;22.00;82.90
45491;DHT22;31237;45.586;13.782;2023-08-01T01:02:46;22.00;83.00
45491;DHT22;31237;45.586;13.782;2023-08-01T01:05:12;21.90;83.00
45491;DHT22;31237;45.586;13.782;2023-08-01T01:07:39;22.00;83.20
45491;DHT22;31237;45.586;13.782;2023-08-01T01:10:05;21.90;83.30
45491;DHT22;31237;45.586;13.782;2023-08-01T01:12:31;21.90;83.40
45491;DHT22;31237;45.586;13.782;2023-08-01T01:14:57;21.90;83.60
45491;DHT22;31237;45.586;13.782;2023-08-01T01:17:22;21.90;83.60
45491;DHT22;31237;45.586;13.782;2023-08-01T01:19:48;21.90;83.80
45491;DHT22;31237;45.586;13.782;2023-08-01T01:22:14;21.90;83.90
45491;DHT22;31237;45.586;13.782;2023-08-01T01:24:41;21.90;83.90
45491;DHT22;31237;45.586;13.782;2023-08-01T01:27:08;21.90;84.10
45491;DHT22;31237;45.586;13.782;2023-08-01T01:29:34;21.80;84.20
45491;DHT22;31237;45.586;13.782;2023-08-01T01:32:03;21.90;84.30
45491;DHT22;31237;45.586;13.782;2023-08-01T01:34:31;21.90;84.40
45491;DHT22;31237;45.586;13.782;2023-08-01T01:36:56;21.90;84.50
45491;DHT22;31237;45.586;13.782;2023-08-01T01:39:22;21.80;84.50
45491;DHT22;31237;45.586;13.782;2023-08-01T01:41:48;21.80;84.70
45491;DHT22;31237;45.586;13.782;2023-08-01T01:44:13;21.80;84.80
45491;DHT22;31237;45.586;13.782;2023-08-01T01:46:39;21.80;84.90
45491;DHT22;31237;45.586;13.782;2023-08-01T01:49:05;21.80;85.00
45491;DHT22;31237;45.586;13.782;2023-08-01T01:51:31;21.80;85.00
45491;DHT22;31237;45.586;13.782;2023-08-01T01:53:57;21.80;85.10
45491;DHT22;31237;45.586;13.782;2023-08-01T01:56:23;21.80;85.10
45491;DHT22;31237;45.586;13.782;2023-08-01T01:58:48;21.80;85.20
45491;DHT22;31237;45.586;13.782;2023-08-01T02:01:14;21.80;85.20
45491;DHT22;31237;45.586;13.782;2023-08-01T02:03:40;21.70;85.20
45491;DHT22;31237;45.586;13.782;2023-08-01T02:06:05;21.70;85.30
45491;DHT22;31237;45.586;13.782;2023-08-01T02:08:31;21.70;85.40
45491;DHT22;31237;45.586;13.782;2023-08-01T02:10:57;21.70;85.50
45491;DHT22;31237;45.586;13.782;2023-08-01T02:13:25;21.70;85.50
45491;DHT22;31237;45.586;13.782;2023-08-01T02:15:51;21.70;85.50
45491;DHT22;31237;45.586;13.782;2023-08-01T02:18:16;21.70;85.60
45491;DHT22;31237;45.586;13.782;2023-08-01T02:20:42;21.60;85.50
45491;DHT22;31237;45.586;13.782;2023-08-01T02:23:08;21.60;85.70
45491;DHT22;31237;45.586;13.782;2023-08-01T02:25:38;21.60;85.80
45491;DHT22;31237;45.586;13.782;2023-08-01T02:28:05;21.50;85.90
45491;DHT22;31237;45.586;13.782;2023-08-01T02:30:31;21.50;86.00
45491;DHT22;31237;45.586;13.782;2023-08-01T02:32:56;21.50;86.10
45491;DHT22;31237;45.586;13.782;2023-08-01T02:35:22;21.50;86.20
45491;DHT22;31237;45.586;13.782;2023-08-01T02:37:48;21.50;86.30
45491;DHT22;31237;45.586;13.782;2023-08-01T02:40:13;21.40;86.30
45491;DHT22;31237;45.586;13.782;2023-08-01T02:42:39;21.50;86.40
45491;DHT22;31237;45.586;13.782;2023-08-01T02:45:05;21.40;86.50
45491;DHT22;31237;45.586;13.782;2023-08-01T02:47:31;21.40;86.60
45491;DHT22;31237;45.586;13.782;2023-08-01T02:49:57;21.40;86.70
45491;DHT22;31237;45.586;13.782;2023-08-01T02:52:22;21.40;86.80
45491;DHT22;31237;45.586;13.782;2023-08-01T02:54:48;21.30;86.80
45491;DHT22;31237;45.586;13.782;2023-08-01T02:57:14;21.30;87.00
45491;DHT22;31237;45.586;13.782;2023-08-01T02:59:39;21.30;87.00
45491;DHT22;31237;45.586;13.782;2023-08-01T03:02:05;21.30;87.10
45491;DHT22;31237;45.586;13.782;2023-08-01T03:04:31;21.30;87.20
45491;DHT22;31237;45.586;13.782;2023-08-01T03:06:56;21.30;87.30
45491;DHT22;31237;45.586;13.782;2023-08-01T03:09:22;21.20;87.30
45491;DHT22;31237;45.586;13.782;2023-08-01T03:11:48;21.20;87.30
45491;DHT22;31237;45.586;13.782;2023-08-01T03:14:14;21.20;87.40
45491;DHT22;31237;45.586;13.782;2023-08-01T03:16:39;21.20;87.40
45491;DHT22;31237;45.586;13.782;2023-08-01T03:19:05;21.20;87.40
45491;DHT22;31237;45.586;13.782;2023-08-01T03:21:34;21.20;87.50
45491;DHT22;31237;45.586;13.782;2023-08-01T03:24:01;21.10;87.50
45491;DHT22;31237;45.586;13.782;2023-08-01T03:26:27;21.10;87.60
45491;DHT22;31237;45.586;13.782;2023-08-01T03:28:55;21.10;87.60
45491;DHT22;31237;45.586;13.782;2023-08-01T03:31:24;21.10;87.60
45491;DHT22;31237;45.586;13.782;2023-08-01T03:33:50;21.00;87.60
45491;DHT22;31237;45.586;13.782;2023-08-01T03:36:15;21.00;87.60
45491;DHT22;31237;45.586;13.782;2023-08-01T03:38:41;21.00;87.70
45491;DHT22;31237;45.586;13.782;2023-08-01T03:41:07;21.00;87.70
45491;DHT22;31237;45.586;13.782;2023-08-01T03:43:33;20.90;87.70
45491;DHT22;31237;45.586;13.782;2023-08-01T03:45:58;21.00;87.80
45491;DHT22;31237;45.586;13.782;2023-08-01T03:48:24;20.90;87.80
45491;DHT22;31237;45.586;13.782;2023-08-01T03:50:50;20.90;87.80
45491;DHT22;31237;45.586;13.782;2023-08-01T03:53:15;20.90;87.80
45491;DHT22;31237;45.586;13.782;2023-08-01T03:55:43;20.90;87.80
45491;DHT22;31237;45.586;13.782;2023-08-01T03:58:09;20.90;88.40
45491;DHT22;31237;45.586;13.782;2023-08-01T04:00:34;20.90;87.70
45491;DHT22;31237;45.586;13.782;2023-08-01T04:03:00;20.90;87.70
45491;DHT22;31237;45.586;13.782;2023-08-01T04:05:27;20.90;87.70
45491;DHT22;31237;45.586;13.782;2023-08-01T04:07:53;20.90;87.70
45491;DHT22;31237;45.586;13.782;2023-08-01T04:10:22;20.90;87.60
45491;DHT22;31237;45.586;13.782;2023-08-01T04:12:48;20.80;87.60
45491;DHT22;31237;45.586;13.782;2023-08-01T04:15:13;20.90;87.70
45491;DHT22;31237;45.586;13.782;2023-08-01T04:17:39;20.90;87.70
45491;DHT22;31237;45.586;13.782;2023-08-01T04:20:05;20.90;87.60
45491;DHT22;31237;45.586;13.782;2023-08-01T04:22:31;20.90;87.60
45491;DHT22;31237;45.586;13.782;2023-08-01T04:24:57;20.90;87.60
45491;DHT22;31237;45.586;13.782;2023-08-01T04:27:22;20.90;87.70
45491;DHT22;31237;45.586;13.782;2023-08-01T04:29:49;20.90;87.60
45491;DHT22;31237;45.586;13.782;2023-08-01T04:32:14;20.90;87.70
45491;DHT22;31237;45.586;13.782;2023-08-01T04:34:41;20.90;87.60
45491;DHT22;31237;45.586;13.782;2023-08-01T04:37:07;20.90;87.50
45491;DHT22;31237;45.586;13.782;2023-08-01T04:39:33;21.00;87.50
45491;DHT22;31237;45.586;13.782;2023-08-01T04:41:59;21.00;87.50
45491;DHT22;31237;45.586;13.782;2023-08-01T04:44:24;21.00;87.60
45491;DHT22;31237;45.586;13.782;2023-08-01T04:46:50;21.10;87.70
45491;DHT22;31237;45.586;13.782;2023-08-01T04:49:16;21.10;87.70
45491;DHT22;31237;45.586;13.782;2023-08-01T04:51:41;21.20;87.70
45491;DHT22;31237;45.586;13.782;2023-08-01T04:54:07;21.30;87.50
45491;DHT22;31237;45.586;13.782;2023-08-01T04:56:33;21.30;87.30
45491;DHT22;31237;45.586;13.782;2023-08-01T04:58:58;21.40;87.10
45491;DHT22;31237;45.586;13.782;2023-08-01T05:01:24;21.50;86.80
45491;DHT22;31237;45.586;13.782;2023-08-01T05:03:50;21.60;86.60
45491;DHT22;31237;45.586;13.782;2023-08-01T05:06:15;21.70;86.50
45491;DHT22;31237;45.586;13.782;2023-08-01T05:08:41;21.80;86.20
45491;DHT22;31237;45.586;13.782;2023-08-01T05:11:07;21.90;86.00
45491;DHT22;31237;45.586;13.782;2023-08-01T05:13:32;22.00;85.90
45491;DHT22;31237;45.586;13.782;2023-08-01T05:15:58;22.10;85.70
45491;DHT22;31237;45.586;13.782;2023-08-01T05:18:24;22.20;85.50
45491;DHT22;31237;45.586;13.782;2023-08-01T05:20:50;22.30;85.40
45491;DHT22;31237;45.586;13.782;2023-08-01T05:23:15;22.40;85.50
45491;DHT22;31237;45.586;13.782;2023-08-01T05:25:41;22.50;85.50
45491;DHT22;31237;45.586;13.782;2023-08-01T05:28:07;22.60;85.50
45491;DHT22;31237;45.586;13.782;2023-08-01T05:30:32;22.60;85.30
45491;DHT22;31237;45.586;13.782;2023-08-01T05:33:02;22.70;85.30
45491;DHT22;31237;45.586;13.782;2023-08-01T05:35:27;22.80;85.30
45491;DHT22;31237;45.586;13.782;2023-08-01T05:37:53;22.90;85.20
45491;DHT22;31237;45.586;13.782;2023-08-01T05:40:19;23.00;85.00
45491;DHT22;31237;45.586;13.782;2023-08-01T05:42:45;23.10;84.90
45491;DHT22;31237;45.586;13.782;2023-08-01T05:45:11;23.10;85.20
45491;DHT22;31237;45.586;13.782;2023-08-01T05:47:37;23.20;84.40
45491;DHT22;31237;45.586;13.782;2023-08-01T05:50:03;23.20;84.20
45491;DHT22;31237;45.586;13.782;2023-08-01T05:52:30;23.30;84.00
45491;DHT22;31237;45.586;13.782;2023-08-01T05:54:55;23.30;83.80
45491;DHT22;31237;45.586;13.782;2023-08-01T05:57:21;23.30;83.70
45491;DHT22;31237;45.586;13.782;2023-08-01T05:59:47;23.30;83.60
45491;DHT22;31237;45.586;13.782;2023-08-01T06:02:12;23.40;83.70
45491;DHT22;31237;45.586;13.782;2023-08-01T06:04:38;23.40;83.60
45491;DHT22;31237;45.586;13.782;2023-08-01T06:07:04;23.50;83.40
45491;DHT22;31237;45.586;13.782;2023-08-01T06:09:30;23.60;83.10
45491;DHT22;31237;45.586;13.782;2023-08-01T06:11:56;23.70;83.00
45491;DHT22;31237;45.586;13.782;2023-08-01T06:14:22;23.70;82.70
45491;DHT22;31237;45.586;13.782;2023-08-01T06:16:47;23.90;82.60
45491;DHT22;31237;45.586;13.782;2023-08-01T06:19:13;23.90;82.50
45491;DHT22;31237;45.586;13.782;2023-08-01T06:21:39;24.00;82.30
45491;DHT22;31237;45.586;13.782;2023-08-01T06:24:04;24.10;82.10
45491;DHT22;31237;45.586;13.782;2023-08-01T06:26:31;24.20;82.60
45491;DHT22;31237;45.586;13.782;2023-08-01T06:28:57;24.40;81.60
45491;DHT22;31237;45.586;13.782;2023-08-01T06:31:22;24.50;80.90
45491;DHT22;31237;45.586;13.782;2023-08-01T06:33:48;24.70;80.40
45491;DHT22;31237;45.586;13.782;2023-08-01T06:36:14;24.80;79.80
45491;DHT22;31237;45.586;13.782;2023-08-01T06:38:42;25.00;79.50
45491;DHT22;31237;45.586;13.782;2023-08-01T06:41:07;25.10;79.30
45491;DHT22;31237;45.586;13.782;2023-08-01T06:43:33;25.30;79.00
45491;DHT22;31237;45.586;13.782;2023-08-01T06:45:58;25.50;78.70
45491;DHT22;31237;45.586;13.782;2023-08-01T06:48:24;25.60;78.10
45491;DHT22;31237;45.586;13.782;2023-08-01T06:50:50;25.80;78.30
45491;DHT22;31237;45.586;13.782;2023-08-01T06:53:16;25.90;77.30
45491;DHT22;31237;45.586;13.782;2023-08-01T06:55:42;25.90;77.00
45491;DHT22;31237;45.586;13.782;2023-08-01T06:58:08;25.90;76.90
45491;DHT22;31237;45.586;13.782;2023-08-01T07:00:33;25.90;76.90
45491;DHT22;31237;45.586;13.782;2023-08-01T07:02:59;25.90;76.80
45491;DHT22;31237;45.586;13.782;2023-08-01T07:05:25;25.80;76.90
45491;DHT22;31237;45.586;13.782;2023-08-01T07:07:50;25.80;77.00
45491;DHT22;31237;45.586;13.782;2023-08-01T07:10:17;25.80;77.20
45491;DHT22;31237;45.586;13.782;2023-08-01T07:12:42;25.80;77.10
45491;DHT22;31237;45.586;13.782;2023-08-01T07:15:09;25.90;77.20
45491;DHT22;31237;45.586;13.782;2023-08-01T07:17:34;26.00;77.10
45491;DHT22;31237;45.586;13.782;2023-08-01T07:20:00;26.20;77.00
45491;DHT22;31237;45.586;13.782;2023-08-01T07:22:26;26.40;76.50
45491;DHT22;31237;45.586;13.782;2023-08-01T07:24:55;26.50;75.90
45491;DHT22;31237;45.586;13.782;2023-08-01T07:27:21;26.60;75.40
45491;DHT22;31237;45.586;13.782;2023-08-01T07:29:47;26.70;75.30
45491;DHT22;31237;45.586;13.782;2023-08-01T07:32:13;26.70;75.30
45491;DHT22;31237;45.586;13.782;2023-08-01T07:34:39;26.70;75.10
45491;DHT22;31237;45.586;13.782;2023-08-01T07:37:05;26.80;74.80
45491;DHT22;31237;45.586;13.782;2023-08-01T07:39:30;26.90;74.50
45491;DHT22;31237;45.586;13.782;2023-08-01T07:41:56;27.00;74.00
45491;DHT22;31237;45.586;13.782;2023-08-01T07:44:22;27.00;73.80
45491;DHT22;31237;45.586;13.782;2023-08-01T07:46:48;27.10;73.80
45491;DHT22;31237;45.586;13.782;2023-08-01T07:49:14;27.20;73.70
45491;DHT22;31237;45.586;13.782;2023-08-01T07:51:39;27.30;73.30
45491;DHT22;31237;45.586;13.782;2023-08-01T07:54:05;27.30;72.70
45491;DHT22;31237;45.586;13.782;2023-08-01T07:56:31;27.40;72.60
45491;DHT22;31237;45.586;13.782;2023-08-01T07:58:56;27.40;72.40
45491;DHT22;31237;45.586;13.782;2023-08-01T08:01:22;27.50;72.30
45491;DHT22;31237;45.586;13.782;2023-08-01T08:03:48;27.50;72.20
45491;DHT22;31237;45.586;13.782;2023-08-01T08:06:14;27.50;72.30
45491;DHT22;31237;45.586;13.782;2023-08-01T08:08:39;27.50;72.20
45491;DHT22;31237;45.586;13.782;2023-08-01T08:11:05;27.50;72.20
45491;DHT22;31237;45.586;13.782;2023-08-01T08:13:31;27.50;72.40
45491;DHT22;31237;45.586;13.782;2023-08-01T08:15:57;27.50;72.70
45491;DHT22;31237;45.586;13.782;2023-08-01T08:18:23;27.40;72.80
45491;DHT22;31237;45.586;13.782;2023-08-01T08:20:49;27.40;72.70
45491;DHT22;31237;45.586;13.782;2023-08-01T08:23:15;27.40;72.70
45491;DHT22;31237;45.586;13.782;2023-08-01T08:25:42;27.40;72.70
45491;DHT22;31237;45.586;13.782;2023-08-01T08:28:11;27.50;72.40
45491;DHT22;31237;45.586;13.782;2023-08-01T08:30:37;27.60;72.50
45491;DHT22;31237;45.586;13.782;2023-08-01T08:33:03;27.70;72.20
45491;DHT22;31237;45.586;13.782;2023-08-01T08:35:34;27.70;72.00
45491;DHT22;31237;45.586;13.782;2023-08-01T08:38:02;27.80;72.00
45491;DHT22;31237;45.586;13.782;2023-08-01T08:40:31;27.80;72.00
45491;DHT22;31237;45.586;13.782;2023-08-01T08:43:01;27.90;72.00
45491;DHT22;31237;45.586;13.782;2023-08-01T08:45:28;28.10;71.90
45491;DHT22;31237;45.586;13.782;2023-08-01T08:47:55;28.20;71.50
45491;DHT22;31237;45.586;13.782;2023-08-01T08:50:25;28.40;71.10
45491;DHT22;31237;45.586;13.782;2023-08-01T08:52:52;28.50;70.90
45491;DHT22;31237;45.586;13.782;2023-08-01T08:55:19;28.50;70.50
45491;DHT22;31237;45.586;13.782;2023-08-01T08:57:49;28.60;70.30
45491;DHT22;31237;45.586;13.782;2023-08-01T09:00:18;28.60;70.10
45491;DHT22;31237;45.586;13.782;2023-08-01T09:02:44;28.60;70.00
45491;DHT22;31237;45.586;13.782;2023-08-01T09:05:10;28.70;69.90
45491;DHT22;31237;45.586;13.782;2023-08-01T09:07:39;28.70;69.90
45491;DHT22;31237;45.586;13.782;2023-08-01T09:10:07;28.80;69.60
45491;DHT22;31237;45.586;13.782;2023-08-01T09:12:34;28.80;69.60
45491;DHT22;31237;45.586;13.782;2023-08-01T09:15:00;28.90;69.50
45491;DHT22;31237;45.586;13.782;2023-08-01T09:17:26;28.90;69.50
45491;DHT22;31237;45.586;13.782;2023-08-01T09:19:57;28.90;69.60
45491;DHT22;31237;45.586;13.782;2023-08-01T09:22:28;28.90;69.60
45491;DHT22;31237;45.586;13.782;2023-08-01T09:24:53;28.90;69.60
45491;DHT22;31237;45.586;13.782;2023-08-01T09:27:21;28.90;69.70
45491;DHT22;31237;45.586;13.782;2023-08-01T09:29:49;28.90;69.70
45491;DHT22;31237;45.586;13.782;2023-08-01T09:32:15;28.90;69.70
45491;DHT22;31237;45.586;13.782;2023-08-01T09:34:42;29.00;69.90
45491;DHT22;31237;45.586;13.782;2023-08-01T09:37:08;29.10;69.80
45491;DHT22;31237;45.586;13.782;2023-08-01T09:39:34;29.20;69.50
45491;DHT22;31237;45.586;13.782;2023-08-01T09:42:02;29.40;69.40
45491;DHT22;31237;45.586;13.782;2023-08-01T09:44:29;29.70;69.20
45491;DHT22;31237;45.586;13.782;2023-08-01T09:47:04;29.80;68.60
45491;DHT22;31237;45.586;13.782;2023-08-01T09:49:30;30.00;68.50
45491;DHT22;31237;45.586;13.782;2023-08-01T09:51:57;30.10;68.20
45491;DHT22;31237;45.586;13.782;2023-08-01T09:54:24;30.20;68.20
45491;DHT22;31237;45.586;13.782;2023-08-01T09:56:51;30.40;67.90
45491;DHT22;31237;45.586;13.782;2023-08-01T09:59:25;30.60;67.40
45491;DHT22;31237;45.586;13.782;2023-08-01T10:01:52;30.60;66.90
45491;DHT22;31237;45.586;13.782;2023-08-01T10:04:21;30.70;66.60
45491;DHT22;31237;45.586;13.782;2023-08-01T10:06:54;30.70;65.70
45491;DHT22;31237;45.586;13.782;2023-08-01T10:09:22;30.60;65.20
45491;DHT22;31237;45.586;13.782;2023-08-01T10:11:49;30.50;64.80
45491;DHT22;31237;45.586;13.782;2023-08-01T10:14:17;30.30;65.50
45491;DHT22;31237;45.586;13.782;2023-08-01T10:16:43;30.30;66.40
45491;DHT22;31237;45.586;13.782;2023-08-01T10:19:09;30.30;67.00
45491;DHT22;31237;45.586;13.782;2023-08-01T10:21:37;30.40;67.00
45491;DHT22;31237;45.586;13.782;2023-08-01T10:24:05;30.40;66.90
45491;DHT22;31237;45.586;13.782;2023-08-01T10:26:32;30.50;67.70
45491;DHT22;31237;45.586;13.782;2023-08-01T10:28:57;30.60;67.60
45491;DHT22;31237;45.586;13.782;2023-08-01T10:31:25;30.60;66.90
45491;DHT22;31237;45.586;13.782;2023-08-01T10:33:51;30.50;67.00
45491;DHT22;31237;45.586;13.782;2023-08-01T10:36:22;30.40;67.50
45491;DHT22;31237;45.586;13.782;2023-08-01T10:38:57;30.30;67.80
45491;DHT22;31237;45.586;13.782;2023-08-01T10:41:30;30.20;67.80
45491;DHT22;31237;45.586;13.782;2023-08-01T10:44:13;30.00;67.20
45491;DHT22;31237;45.586;13.782;2023-08-01T10:46:52;29.80;67.30
45491;DHT22;31237;45.586;13.782;2023-08-01T10:49:20;29.70;67.70
45491;DHT22;31237;45.586;13.782;2023-08-01T10:51:47;29.70;67.90
45491;DHT22;31237;45.586;13.782;2023-08-01T10:54:23;29.70;67.80
45491;DHT22;31237;45.586;13.782;2023-08-01T10:56:51;29.70;68.70
45491;DHT22;31237;45.586;13.782;2023-08-01T10:59:17;29.70;68.70
45491;DHT22;31237;45.586;13.782;2023-08-01T11:01:50;29.60;68.90
45491;DHT22;31237;45.586;13.782;2023-08-01T11:04:23;29.60;68.80
45491;DHT22;31237;45.586;13.782;2023-08-01T11:06:51;29.60;68.60
45491;DHT22;31237;45.586;13.782;2023-08-01T11:09:24;29.60;68.30
45491;DHT22;31237;45.586;13.782;2023-08-01T11:11:55;29.40;68.10
45491;DHT22;31237;45.586;13.782;2023-08-01T11:14:22;29.30;68.50
45491;DHT22;31237;45.586;13.782;2023-08-01T11:16:50;29.30;69.00
45491;DHT22;31237;45.586;13.782;2023-08-01T11:21:46;29.40;68.10
45491;DHT22;31237;45.586;13.782;2023-08-01T11:24:11;29.30;68.50
45491;DHT22;31237;45.586;13.782;2023-08-01T11:26:44;29.30;68.50
45491;DHT22;31237;45.586;13.782;2023-08-01T11:29:11;29.40;68.40
45491;DHT22;31237;45.586;13.782;2023-08-01T11:31:37;29.30;68.50
45491;DHT22;31237;45.586;13.782;2023-08-01T11:34:02;29.30;69.00
45491;DHT22;31237;45.586;13.782;2023-08-01T11:36:29;29.40;68.70
45491;DHT22;31237;45.586;13.782;2023-08-01T11:38:58;29.60;69.10
45491;DHT22;31237;45.586;13.782;2023-08-01T11:41:28;29.70;68.70
45491;DHT22;31237;45.586;13.782;2023-08-01T11:43:54;29.70;68.50
45491;DHT22;31237;45.586;13.782;2023-08-01T11:46:29;29.60;68.00
45491;DHT22;31237;45.586;13.782;2023-08-01T11:48:55;29.60;68.50
45491;DHT22;31237;45.586;13.782;2023-08-01T11:51:21;29.50;69.20
45491;DHT22;31237;45.586;13.782;2023-08-01T11:53:57;29.50;69.50
45491;DHT22;31237;45.586;13.782;2023-08-01T11:56:23;29.60;69.60
45491;DHT22;31237;45.586;13.782;2023-08-01T11:58:49;29.50;68.60
45491;DHT22;31237;45.586;13.782;2023-08-01T12:01:16;29.40;68.60
45491;DHT22;31237;45.586;13.782;2023-08-01T12:03:46;29.30;69.30
45491;DHT22;31237;45.586;13.782;2023-08-01T12:06:13;29.20;69.70
45491;DHT22;31237;45.586;13.782;2023-08-01T12:08:43;29.10;69.70
45491;DHT22;31237;45.586;13.782;2023-08-01T12:11:26;29.10;70.20
45491;DHT22;31237;45.586;13.782;2023-08-01T12:14:14;29.10;70.50
45491;DHT22;31237;45.586;13.782;2023-08-01T12:16:46;29.10;70.20
45491;DHT22;31237;45.586;13.782;2023-08-01T12:19:19;29.10;70.30
45491;DHT22;31237;45.586;13.782;2023-08-01T12:21:45;29.00;70.50
45491;DHT22;31237;45.586;13.782;2023-08-01T12:24:11;29.00;70.20
45491;DHT22;31237;45.586;13.782;2023-08-01T12:26:37;28.90;70.90
45491;DHT22;31237;45.586;13.782;2023-08-01T12:29:02;28.90;71.20
45491;DHT22;31237;45.586;13.782;2023-08-01T12:31:28;29.00;71.70
45491;DHT22;31237;45.586;13.782;2023-08-01T12:33:54;29.00;71.40
45491;DHT22;31237;45.586;13.782;2023-08-01T12:36:20;29.00;71.80
45491;DHT22;31237;45.586;13.782;2023-08-01T12:38:46;29.00;71.80
45491;DHT22;31237;45.586;13.782;2023-08-01T12:41:12;29.10;71.80
45491;DHT22;31237;45.586;13.782;2023-08-01T12:43:38;29.10;71.80
45491;DHT22;31237;45.586;13.782;2023-08-01T12:46:04;29.10;72.60
45491;DHT22;31237;45.586;13.782;2023-08-01T12:48:29;29.20;72.60
45491;DHT22;31237;45.586;13.782;2023-08-01T12:50:55;29.20;72.60
45491;DHT22;31237;45.586;13.782;2023-08-01T12:53:22;29.20;72.80
45491;DHT22;31237;45.586;13.782;2023-08-01T12:55:49;29.20;73.30
45491;DHT22;31237;45.586;13.782;2023-08-01T12:58:16;29.20;73.50
45491;DHT22;31237;45.586;13.782;2023-08-01T13:00:42;29.20;74.00
45491;DHT22;31237;45.586;13.782;2023-08-01T13:03:09;29.20;74.20
45491;DHT22;31237;45.586;13.782;2023-08-01T13:05:35;29.20;74.00
45491;DHT22;31237;45.586;13.782;2023-08-01T13:08:02;29.20;73.70
45491;DHT22;31237;45.586;13.782;2023-08-01T13:10:31;29.20;73.60
45491;DHT22;31237;45.586;13.782;2023-08-01T13:12:57;29.20;72.50
45491;DHT22;31237;45.586;13.782;2023-08-01T13:15:23;29.30;72.60
45491;DHT22;31237;45.586;13.782;2023-08-01T13:17:49;29.30;71.90
45491;DHT22;31237;45.586;13.782;2023-08-01T13:20:15;29.40;71.60
45491;DHT22;31237;45.586;13.782;2023-08-01T13:22:42;29.40;70.90
45491;DHT22;31237;45.586;13.782;2023-08-01T13:25:08;29.40;71.10
45491;DHT22;31237;45.586;13.782;2023-08-01T13:27:35;29.40;70.80
45491;DHT22;31237;45.586;13.782;2023-08-01T13:30:02;29.50;71.10
45491;DHT22;31237;45.586;13.782;2023-08-01T13:32:28;29.50;71.30
45491;DHT22;31237;45.586;13.782;2023-08-01T13:34:54;29.60;70.70
45491;DHT22;31237;45.586;13.782;2023-08-01T13:37:19;29.60;70.40
45491;DHT22;31237;45.586;13.782;2023-08-01T13:39:45;29.60;70.30
45491;DHT22;31237;45.586;13.782;2023-08-01T13:42:14;29.70;70.10
45491;DHT22;31237;45.586;13.782;2023-08-01T13:44:41;29.70;70.20
45491;DHT22;31237;45.586;13.782;2023-08-01T13:47:07;29.80;70.20
45491;DHT22;31237;45.586;13.782;2023-08-01T13:49:33;29.80;70.00
45491;DHT22;31237;45.586;13.782;2023-08-01T13:51:59;29.80;70.10
45491;DHT22;31237;45.586;13.782;2023-08-01T13:54:26;29.90;70.00
45491;DHT22;31237;45.586;13.782;2023-08-01T13:56:54;29.90;70.10
45491;DHT22;31237;45.586;13.782;2023-08-01T13:59:20;29.90;70.20
45491;DHT22;31237;45.586;13.782;2023-08-01T14:01:46;29.90;70.10
45491;DHT22;31237;45.586;13.782;2023-08-01T14:04:12;29.90;70.10
45491;DHT22;31237;45.586;13.782;2023-08-01T14:06:41;29.90;70.40
45491;DHT22;31237;45.586;13.782;2023-08-01T14:09:08;29.90;70.40
45491;DHT22;31237;45.586;13.782;2023-08-01T14:11:37;29.80;70.20
45491;DHT22;31237;45.586;13.782;2023-08-01T14:14:03;29.80;70.40
45491;DHT22;31237;45.586;13.782;2023-08-01T14:16:29;29.80;70.40
45491;DHT22;31237;45.586;13.782;2023-08-01T14:18:55;29.80;70.70
45491;DHT22;31237;45.586;13.782;2023-08-01T14:21:21;29.70;70.90
45491;DHT22;31237;45.586;13.782;2023-08-01T14:23:47;29.80;71.10
45491;DHT22;31237;45.586;13.782;2023-08-01T14:26:13;29.80;71.00
45491;DHT22;31237;45.586;13.782;2023-08-01T14:28:39;29.80;71.00
45491;DHT22;31237;45.586;13.782;2023-08-01T14:31:05;29.70;70.90
45491;DHT22;31237;45.586;13.782;2023-08-01T14:33:31;29.60;70.50
45491;DHT22;31237;45.586;13.782;2023-08-01T14:35:57;29.60;70.50
45491;DHT22;31237;45.586;13.782;2023-08-01T14:38:23;29.50;70.50
45491;DHT22;31237;45.586;13.782;2023-08-01T14:40:49;29.50;70.60
45491;DHT22;31237;45.586;13.782;2023-08-01T14:43:14;29.40;70.30
45491;DHT22;31237;45.586;13.782;2023-08-01T14:45:40;29.40;70.40
45491;DHT22;31237;45.586;13.782;2023-08-01T14:48:07;29.40;70.60
45491;DHT22;31237;45.586;13.782;2023-08-01T14:50:33;29.40;70.70
45491;DHT22;31237;45.586;13.782;2023-08-01T14:52:59;29.40;70.40
45491;DHT22;31237;45.586;13.782;2023-08-01T14:55:25;29.40;70.60
45491;DHT22;31237;45.586;13.782;2023-08-01T14:57:51;29.30;70.60
45491;DHT22;31237;45.586;13.782;2023-08-01T15:00:16;29.20;70.50
45491;DHT22;31237;45.586;13.782;2023-08-01T15:02:42;29.20;70.70
45491;DHT22;31237;45.586;13.782;2023-08-01T15:05:08;29.20;71.60
45491;DHT22;31237;45.586;13.782;2023-08-01T15:07:34;29.20;71.20
45491;DHT22;31237;45.586;13.782;2023-08-01T15:09:59;29.20;71.50
45491;DHT22;31237;45.586;13.782;2023-08-01T15:12:25;29.20;71.60
45491;DHT22;31237;45.586;13.782;2023-08-01T15:14:56;29.20;71.80